createdAt,value
2019-03-11T10:23:48.396Z,13.10
2019-03-11T10:26:27.718Z,13.30
2019-03-11T10:29:05.740Z,13.55
2019-03-11T10:31:47.957Z,13.05
2019-03-11T10:34:27.580Z,13.33
2019-03-11T10:37:07.950Z,12.90
2019-03-11T10:39:48.023Z,13.30
2019-03-11T10:42:25.955Z,12.85
2019-03-11T10:45:05.247Z,13.15
2019-03-11T10:47:43.469Z,12.85
2019-03-11T10:50:22.430Z,13.00
2019-03-11T10:53:01.293Z,14.00
2019-03-11T10:55:39.941Z,16.17
2019-03-11T10:58:19.106Z,23.92
2019-03-11T11:00:57.404Z,14.23
2019-03-11T11:03:35.779Z,14.58
2019-03-11T11:06:13.827Z,14.63
2019-03-11T11:08:51.414Z,17.62
2019-03-11T11:11:31.813Z,17.62
2019-03-11T11:14:10.604Z,27.87
2019-03-11T11:16:49.833Z,15.20
2019-03-11T11:19:33.180Z,15.85
2019-03-11T11:22:14.046Z,16.20
2019-03-11T11:24:59.177Z,16.87
2019-03-11T11:27:43.497Z,18.92
2019-03-11T11:30:25.493Z,17.90
2019-03-11T11:33:06.786Z,18.07
2019-03-11T11:35:45.544Z,18.87
2019-03-11T11:38:25.323Z,17.30
2019-03-11T11:41:02.829Z,18.60
2019-03-11T11:43:41.863Z,19.57
2019-03-11T11:46:21.556Z,19.05
2019-03-11T11:48:59.920Z,17.30
2019-03-11T11:51:38.903Z,16.82
2019-03-11T11:54:20.432Z,15.83
2019-03-11T11:56:59.103Z,17.03
2019-03-11T11:59:37.351Z,16.30
2019-03-11T12:02:15.983Z,15.03
2019-03-11T12:04:54.392Z,14.70
2019-03-11T12:07:33.993Z,14.03
2019-03-11T12:10:18.873Z,15.00
2019-03-11T12:12:57.804Z,14.70
2019-03-11T12:15:36.405Z,14.45
2019-03-11T12:18:19.238Z,14.65
2019-03-11T12:21:00.951Z,15.15
2019-03-11T12:23:46.277Z,14.50
2019-03-11T12:26:28.801Z,15.10
2019-03-11T12:29:08.735Z,14.13
2019-03-11T12:31:46.950Z,15.25
2019-03-11T12:34:28.788Z,15.50
2019-03-11T12:37:09.075Z,16.23
2019-03-11T12:39:49.195Z,14.15
2019-03-11T12:42:27.978Z,14.98
2019-03-11T12:45:06.752Z,14.68
2019-03-11T12:47:47.596Z,13.93
2019-03-11T12:50:30.138Z,14.13
2019-03-11T12:53:08.633Z,14.30
2019-03-11T12:55:47.435Z,14.60
2019-03-11T12:58:26.129Z,14.45
2019-03-11T13:01:09.190Z,14.83
2019-03-11T13:03:47.413Z,14.20
2019-03-11T13:06:28.558Z,14.40
2019-03-11T13:09:08.603Z,13.80
2019-03-11T13:11:52.151Z,13.20
2019-03-11T13:14:30.793Z,13.45
2019-03-11T13:17:12.626Z,13.30
2019-03-11T13:19:51.126Z,13.65
2019-03-11T13:22:30.305Z,13.53
2019-03-11T13:25:08.480Z,12.78
2019-03-11T13:27:49.200Z,13.05
2019-03-11T13:30:27.596Z,13.10
2019-03-11T13:33:10.041Z,12.80
2019-03-11T13:35:56.543Z,12.43
2019-03-11T13:38:40.167Z,12.60
2019-03-11T13:41:23.210Z,12.35
2019-03-11T13:44:02.027Z,13.40
2019-03-11T13:46:41.650Z,11.85
2019-03-11T13:49:22.532Z,12.33
2019-03-11T13:52:03.510Z,11.35
2019-03-11T13:54:43.474Z,11.97
2019-03-11T13:57:23.332Z,11.88
2019-03-11T14:00:02.262Z,11.70
2019-03-11T14:02:40.403Z,11.60
2019-03-11T14:05:19.062Z,12.25
2019-03-11T14:07:59.564Z,13.95
2019-03-11T14:10:41.379Z,13.00
2019-03-11T14:13:20.059Z,13.05
2019-03-11T14:15:59.224Z,13.32
2019-03-11T14:18:36.665Z,14.00
2019-03-11T14:21:25.238Z,14.53
2019-03-11T14:23:56.866Z,13.30
2019-03-11T14:26:35.495Z,14.23
2019-03-11T14:29:13.901Z,13.00
2019-03-11T14:31:52.662Z,13.22
2019-03-11T14:34:31.413Z,12.75
2019-03-11T14:37:11.014Z,13.28
2019-03-11T14:39:50.864Z,13.60
2019-03-11T14:42:30.288Z,13.28
2019-03-11T14:45:09.411Z,14.90
2019-03-11T14:47:48.132Z,14.38
2019-03-11T14:50:26.984Z,14.33
2019-03-11T14:53:05.957Z,14.65
2019-03-11T14:55:44.150Z,14.28
2019-03-11T14:58:29.465Z,14.58
2019-03-11T15:01:02.607Z,14.98
2019-03-11T15:03:44.648Z,14.00
2019-03-11T15:06:22.143Z,13.65
2019-03-11T15:09:00.711Z,14.73
2019-03-11T15:11:41.050Z,15.28
2019-03-11T15:14:20.190Z,14.25
2019-03-11T15:16:59.011Z,13.58
2019-03-11T15:19:38.164Z,13.40
2019-03-11T15:22:16.604Z,14.23
2019-03-11T15:24:55.242Z,13.15
2019-03-11T15:27:33.596Z,13.18
2019-03-11T15:30:15.353Z,13.53
2019-03-11T15:32:55.095Z,13.45
2019-03-11T15:35:33.104Z,13.40
2019-03-11T15:38:15.581Z,12.80
2019-03-11T15:43:29.583Z,12.18
2019-03-11T15:46:08.647Z,11.63
2019-03-11T15:48:47.113Z,12.50
2019-03-11T15:51:25.139Z,12.90
2019-03-11T15:54:03.956Z,12.13
2019-03-11T15:56:43.245Z,12.28
2019-03-11T15:59:21.843Z,11.43
2019-03-11T16:02:00.784Z,11.95
2019-03-11T16:04:39.076Z,12.55
2019-03-11T16:07:16.997Z,11.15
2019-03-11T16:09:57.076Z,12.30
2019-03-11T16:12:36.651Z,11.10
2019-03-11T16:15:14.996Z,12.30
2019-03-11T16:17:54.708Z,12.28
2019-03-11T16:20:33.362Z,12.33
2019-03-11T16:23:12.426Z,11.55
2019-03-11T16:25:50.990Z,10.90
2019-03-11T16:28:29.852Z,12.03
2019-03-11T16:31:09.528Z,12.20
2019-03-11T16:33:48.460Z,11.53
2019-03-11T16:36:27.679Z,11.40
2019-03-11T16:39:06.301Z,12.50
2019-03-11T16:41:45.276Z,14.53
2019-03-11T16:44:23.389Z,12.98
2019-03-11T16:47:02.148Z,12.60
2019-03-11T16:49:42.504Z,12.55
2019-03-11T16:52:21.114Z,11.80
2019-03-11T16:54:59.749Z,12.58
2019-03-11T16:57:37.743Z,12.10
2019-03-11T17:00:21.009Z,13.30
2019-03-11T17:02:59.642Z,12.28
2019-03-11T17:05:38.139Z,13.10
2019-03-11T17:08:18.193Z,13.80
2019-03-11T17:10:56.593Z,13.90
2019-03-11T17:13:34.747Z,13.45
2019-03-11T17:16:13.260Z,13.10
2019-03-11T17:18:51.894Z,13.78
2019-03-11T17:21:33.102Z,15.40
2019-03-11T17:24:12.557Z,15.43
2019-03-11T17:26:52.289Z,14.00
2019-03-11T17:29:30.848Z,14.93
2019-03-11T17:32:09.075Z,15.40
2019-03-11T17:34:47.246Z,15.05
2019-03-11T17:37:25.295Z,13.10
2019-03-11T17:40:03.845Z,15.28
2019-03-11T17:42:42.951Z,16.32
2019-03-11T17:45:21.213Z,17.82
2019-03-11T17:47:59.873Z,19.40
2019-03-11T17:50:39.260Z,16.77
2019-03-11T17:53:20.195Z,19.27
2019-03-11T17:56:00.250Z,16.93
2019-03-11T17:58:38.894Z,18.65
2019-03-11T18:01:19.511Z,16.45
2019-03-11T18:03:58.507Z,16.30
2019-03-11T18:06:37.242Z,14.85
2019-03-11T18:09:16.130Z,14.38
2019-03-11T18:11:54.331Z,14.98
2019-03-11T18:14:32.341Z,15.32
2019-03-11T18:17:12.409Z,15.15
2019-03-11T18:19:54.248Z,14.68
2019-03-11T18:22:33.077Z,14.90
2019-03-11T18:25:13.164Z,14.18
2019-03-11T18:27:52.294Z,14.95
2019-03-11T18:30:31.291Z,13.53
2019-03-11T18:33:09.860Z,12.93
2019-03-11T18:35:48.233Z,14.20
2019-03-11T18:38:26.647Z,14.47
2019-03-11T18:41:05.399Z,14.95
2019-03-11T18:43:43.326Z,14.58
2019-03-11T18:46:21.884Z,14.50
2019-03-11T18:49:00.217Z,14.98
2019-03-11T18:51:39.284Z,17.15
2019-03-11T18:54:17.812Z,16.75
2019-03-11T18:56:56.452Z,17.87
2019-03-11T18:59:34.365Z,16.60
2019-03-11T19:02:13.763Z,16.97
2019-03-11T19:04:53.075Z,16.23
2019-03-11T19:07:31.482Z,18.07
2019-03-11T19:10:10.190Z,17.17
2019-03-11T19:12:49.369Z,15.13
2019-03-11T19:15:27.873Z,14.75
2019-03-11T19:18:05.612Z,15.80
2019-03-11T19:20:46.114Z,15.53
2019-03-11T19:23:24.467Z,15.85
2019-03-11T19:26:01.950Z,15.72
2019-03-11T19:28:41.959Z,14.65
2019-03-11T19:31:20.667Z,16.40
2019-03-11T19:33:59.685Z,16.67
2019-03-11T19:36:38.028Z,16.40
2019-03-11T19:39:21.269Z,15.70
2019-03-11T19:42:00.242Z,16.27
2019-03-11T19:44:47.601Z,16.60
2019-03-11T19:47:27.541Z,17.48
2019-03-11T19:50:07.333Z,17.23
2019-03-11T19:52:57.731Z,17.07
2019-03-11T19:55:27.526Z,16.40
2019-03-11T19:58:05.980Z,18.10
2019-03-11T20:00:45.187Z,18.92
2019-03-11T20:03:29.250Z,20.00
2019-03-11T20:06:04.297Z,18.98
2019-03-11T20:08:42.953Z,19.20
2019-03-11T20:11:21.017Z,19.82
2019-03-11T20:13:59.666Z,19.92
2019-03-11T20:16:38.816Z,20.45
2019-03-11T20:19:16.862Z,17.87
2019-03-11T20:21:55.077Z,18.23
2019-03-11T20:24:33.571Z,17.80
2019-03-11T20:27:12.863Z,18.07
2019-03-11T20:29:52.599Z,18.55
2019-03-11T20:32:31.582Z,17.30
2019-03-11T20:35:17.594Z,18.00
2019-03-11T20:37:54.481Z,17.80
2019-03-11T20:40:33.026Z,16.85
2019-03-11T20:43:11.669Z,19.60
2019-03-11T20:45:50.441Z,19.57
2019-03-11T20:48:29.399Z,19.82
2019-03-11T20:51:08.542Z,19.60
2019-03-11T20:53:47.294Z,25.37
2019-03-11T20:56:25.376Z,25.02
2019-03-11T20:59:03.625Z,26.05
2019-03-11T21:01:44.709Z,27.02
2019-03-11T21:04:24.481Z,25.82
2019-03-11T21:07:03.647Z,29.07
2019-03-11T21:09:41.878Z,28.87
2019-03-11T21:12:24.587Z,28.57
2019-03-11T21:15:01.958Z,27.95
2019-03-11T21:17:42.257Z,26.50
2019-03-11T21:20:22.337Z,26.05
2019-03-11T21:23:00.575Z,26.27
2019-03-11T21:25:38.922Z,25.10
2019-03-11T21:28:18.854Z,22.70
2019-03-11T21:31:01.594Z,21.37
2019-03-11T21:33:40.921Z,21.45
2019-03-11T21:36:20.327Z,20.23
2019-03-11T21:38:59.074Z,20.62
2019-03-11T21:41:37.727Z,21.17
2019-03-11T21:44:15.801Z,19.40
2019-03-11T21:46:53.607Z,20.62
2019-03-11T21:49:32.567Z,21.37
2019-03-11T21:52:10.495Z,21.75
2019-03-11T21:54:48.908Z,21.68
2019-03-11T21:57:30.050Z,19.95
2019-03-11T22:00:09.548Z,21.68
2019-03-11T22:02:49.181Z,21.85
2019-03-11T22:05:27.386Z,21.50
2019-03-11T22:08:07.328Z,26.90
2019-03-11T22:10:45.807Z,30.05
2019-03-11T22:13:23.677Z,21.60
2019-03-11T22:16:01.279Z,22.17
2019-03-11T22:18:39.015Z,21.85
2019-03-11T22:21:17.185Z,21.82
2019-03-11T22:23:58.898Z,21.77
2019-03-11T22:26:37.150Z,23.70
2019-03-11T22:29:14.650Z,24.57
2019-03-11T22:31:52.763Z,25.65
2019-03-11T22:34:30.985Z,26.45
2019-03-11T22:37:09.724Z,24.72
2019-03-11T22:39:48.322Z,29.77
2019-03-11T22:42:26.823Z,63.50
2019-03-11T22:45:04.895Z,27.82
2019-03-11T22:47:42.976Z,24.75
2019-03-11T22:50:21.168Z,27.20
2019-03-11T22:52:59.390Z,25.25
2019-03-11T22:55:39.204Z,26.25
2019-03-11T22:58:18.001Z,29.07
2019-03-11T23:01:04.048Z,28.87
2019-03-11T23:03:50.346Z,29.30
2019-03-11T23:06:23.428Z,30.17
2019-03-11T23:09:02.561Z,32.95
2019-03-11T23:11:41.861Z,32.80
2019-03-11T23:14:21.927Z,30.80
2019-03-11T23:17:03.727Z,32.20
2019-03-11T23:19:41.777Z,32.95
2019-03-11T23:22:21.664Z,41.08
2019-03-11T23:25:04.671Z,32.35
2019-03-11T23:27:44.463Z,34.83
2019-03-11T23:30:23.609Z,30.02
2019-03-11T23:33:03.450Z,29.37
2019-03-11T23:35:42.049Z,29.00
2019-03-11T23:38:21.021Z,27.37
2019-03-11T23:41:00.526Z,26.85
2019-03-11T23:43:40.014Z,28.52
2019-03-11T23:46:18.298Z,29.57
2019-03-11T23:48:56.226Z,30.52
2019-03-11T23:51:34.277Z,29.23
2019-03-11T23:54:11.688Z,27.82
2019-03-11T23:56:49.508Z,28.42
2019-03-11T23:59:29.304Z,31.20
